Time;durP1;ratioP1;P1;durP2;ratioP2;P2;SDS_P1;SDS_P2;PMS_P1;PMS_P2;Temp;Humidity;BMP_temperature;BMP_pressure;BME280_temperature;BME280_humidity;BME280_pressure;Samples;Min_cycle;Max_cycle;Signal;HPM_P1;HPM_P2
2021/04/12 00:00:06;;;;;;;1.40;0.60;;;;;;;16.80;61.84;102359.44;6386522;22;20037;-77
2021/04/12 00:02:54;;;;;;;1.02;0.55;;;;;;;16.78;62.45;102361.09;6351632;22;20023;-77
2021/04/12 00:05:41;;;;;;;0.68;0.50;;;;;;;16.79;61.58;102364.59;6297138;22;20331;-77
2021/04/12 00:08:22;;;;;;;0.77;0.40;;;;;;;16.77;61.87;102363.69;6266084;22;19999;-78
2021/04/12 00:11:04;;;;;;;1.10;0.50;;;;;;;16.77;61.92;102369.75;6267695;22;20014;-77
2021/04/12 00:13:42;;;;;;;1.77;0.60;;;;;;;16.78;62.43;102370.63;6268426;22;20018;-77
2021/04/12 00:16:30;;;;;;;0.82;0.43;;;;;;;16.77;61.70;102376.69;6271206;22;20078;-77
2021/04/12 00:19:34;;;;;;;0.90;0.60;;;;;;;16.77;62.16;102368.91;6272008;22;19988;-77
2021/04/12 00:22:12;;;;;;;0.85;0.60;;;;;;;16.76;61.93;102370.59;6298931;22;20069;-78
2021/04/12 00:25:16;;;;;;;1.60;0.90;;;;;;;16.76;61.56;102373.19;6271386;22;20007;-77
2021/04/12 00:27:48;;;;;;;0.93;0.55;;;;;;;16.75;61.51;102370.59;6298146;22;20012;-77
2021/04/12 00:33:11;;;;;;;1.45;0.50;;;;;;;16.75;61.77;102379.25;6329391;22;20057;-77
2021/04/12 00:35:42;;;;;;;1.45;0.57;;;;;;;16.72;61.70;102366.19;6329940;22;20018;-78
2021/04/12 00:38:15;;;;;;;1.60;0.65;;;;;;;16.74;61.67;102368.81;6303320;22;19991;-77
2021/04/12 00:40:59;;;;;;;1.25;0.50;;;;;;;16.74;61.71;102368.81;6333160;22;20003;-77
2021/04/12 00:47:09;;;;;;;0.70;0.40;;;;;;;16.75;61.77;102375.78;6330068;22;20045;-77
2021/04/12 00:49:48;;;;;;;0.77;0.50;;;;;;;16.74;61.57;102382.69;6328396;22;19995;-77
2021/04/12 00:52:39;;;;;;;0.70;0.45;;;;;;;16.73;61.80;102377.47;6301045;22;20008;-78
2021/04/12 00:55:11;;;;;;;1.20;0.50;;;;;;;16.73;61.58;102393.09;6259403;22;20022;-78
2021/04/12 00:58:06;;;;;;;0.68;0.43;;;;;;;16.72;61.79;102388.72;6328769;22;20003;-78
2021/04/12 01:00:40;;;;;;;1.85;0.60;;;;;;;16.71;61.69;102386.97;6327227;22;20399;-77
2021/04/12 01:03:39;;;;;;;0.90;0.50;;;;;;;16.72;61.79;102388.72;6297696;22;20010;-77
2021/04/12 01:06:33;;;;;;;0.65;0.40;;;;;;;16.72;61.76;102391.31;6336274;22;20003;-77
2021/04/12 01:09:12;;;;;;;0.55;0.45;;;;;;;16.72;61.57;102388.72;6329415;22;20022;-77
2021/04/12 01:11:40;;;;;;;0.77;0.32;;;;;;;16.72;61.57;102391.31;6328311;22;20022;-78
2021/04/12 01:14:33;;;;;;;0.63;0.40;;;;;;;16.71;61.36;102398.25;6328197;22;20307;-77
2021/04/12 01:17:19;;;;;;;1.45;0.50;;;;;;;16.70;61.64;102396.50;6328584;22;20022;-77
2021/04/12 01:19:53;;;;;;;0.50;0.45;;;;;;;16.70;61.48;102393.91;6333917;22;19987;-77
2021/04/12 01:22:27;;;;;;;1.17;0.47;;;;;;;16.70;61.85;102393.00;6333773;22;20011;-77
2021/04/12 01:25:05;;;;;;;0.85;0.50;;;;;;;16.70;61.62;102398.19;6329483;22;20085;-77
2021/04/12 01:28:07;;;;;;;1.05;0.50;;;;;;;16.68;61.74;102398.19;6329435;22;20098;-77
2021/04/12 01:30:53;;;;;;;0.77;0.50;;;;;;;16.68;61.39;102398.19;6327924;22;20007;-78
2021/04/12 01:34:03;;;;;;;0.73;0.40;;;;;;;16.67;61.68;102399.91;6337457;22;19991;-77
2021/04/12 01:36:43;;;;;;;0.35;0.32;;;;;;;16.69;61.38;102406.88;6364579;22;20014;-77
2021/04/12 01:39:22;;;;;;;0.88;0.30;;;;;;;16.67;61.72;102405.09;6329311;22;20007;-77
2021/04/12 01:42:06;;;;;;;1.35;0.60;;;;;;;16.65;61.52;102406.78;6352769;22;20029;-78
2021/04/12 01:47:40;;;;;;;1.45;0.50;;;;;;;16.67;62.00;102417.22;6351010;22;20030;-78
2021/04/12 01:50:30;;;;;;;1.10;0.50;;;;;;;16.67;61.55;102417.22;6224338;22;20018;-77
2021/04/12 01:53:46;;;;;;;0.85;0.30;;;;;;;16.63;61.52;102413.69;6329078;22;20003;-78
2021/04/12 01:56:21;;;;;;;0.82;0.30;;;;;;;16.64;61.29;102418.03;6331665;22;19998;-77
2021/04/12 01:59:07;;;;;;;0.60;0.40;;;;;;;16.64;61.26;102427.56;6361140;22;19999;-77
2021/04/12 02:02:02;;;;;;;1.00;0.50;;;;;;;16.65;61.34;102439.72;6335034;22;20027;-78
2021/04/12 02:04:40;;;;;;;3.15;0.60;;;;;;;16.64;61.26;102432.78;6326050;22;20006;-78
2021/04/12 02:07:11;;;;;;;0.40;0.30;;;;;;;16.62;61.48;102440.53;6356072;22;20007;-77
2021/04/12 02:09:51;;;;;;;0.45;0.30;;;;;;;16.64;61.24;102437.97;6360534;22;19998;-77
2021/04/12 02:12:29;;;;;;;0.52;0.40;;;;;;;16.61;61.28;102433.59;6357887;22;20007;-77
2021/04/12 02:14:55;;;;;;;0.80;0.35;;;;;;;16.64;61.40;102443.16;6361193;22;20019;-77
2021/04/12 02:17:39;;;;;;;2.60;0.40;;;;;;;16.64;61.40;102440.56;6356755;22;20018;-78
2021/04/12 02:20:23;;;;;;;0.60;0.30;;;;;;;16.64;61.24;102444.03;6354944;22;20354;-78
2021/04/12 02:23:12;;;;;;;1.48;0.40;;;;;;;16.62;61.61;102444.84;6355087;22;20003;-78
2021/04/12 02:25:49;;;;;;;1.05;0.52;;;;;;;16.62;60.93;102442.25;6356984;22;19999;-77
2021/04/12 02:28:39;;;;;;;0.82;0.40;;;;;;;16.61;61.01;102451.78;6353294;22;20002;-77
2021/04/12 02:31:23;;;;;;;0.40;0.35;;;;;;;16.62;61.17;102450.06;6355273;22;20014;-77
2021/04/12 02:33:58;;;;;;;0.85;0.30;;;;;;;16.60;61.35;102444.81;6354754;22;20003;-78
2021/04/12 02:37:04;;;;;;;0.63;0.32;;;;;;;16.62;61.77;102445.72;6354942;22;20095;-79
2021/04/12 02:39:32;;;;;;;1.20;0.40;;;;;;;16.62;61.42;102448.31;6354673;22;20067;-77
2021/04/12 02:42:12;;;;;;;1.33;0.47;;;;;;;16.62;61.26;102453.53;6355296;22;20007;-77
2021/04/12 02:45:11;;;;;;;0.63;0.32;;;;;;;16.60;62.33;102446.53;6358476;22;20006;-77
2021/04/12 02:47:56;;;;;;;0.65;0.20;;;;;;;16.60;61.41;102452.63;6357099;22;20014;-78
2021/04/12 02:50:50;;;;;;;0.93;0.43;;;;;;;16.63;61.04;102451.78;6357197;22;20008;-77
2021/04/12 02:53:44;;;;;;;0.73;0.40;;;;;;;16.60;61.51;102450.00;6357536;22;20011;-77
2021/04/12 02:56:31;;;;;;;1.55;0.43;;;;;;;16.63;61.24;102463.06;6358988;22;20003;-78
2021/04/12 02:59:34;;;;;;;0.50;0.30;;;;;;;16.63;61.33;102462.19;6360547;22;19999;-77
2021/04/12 03:02:27;;;;;;;0.22;0.22;;;;;;;16.62;61.05;102461.31;6358611;22;20003;-78
2021/04/12 03:05:07;;;;;;;0.53;0.33;;;;;;;16.62;61.17;102461.31;6350215;22;20041;-77
2021/04/12 03:07:59;;;;;;;0.73;0.30;;;;;;;16.64;60.78;102466.56;6342693;22;20237;-77
2021/04/12 03:10:52;;;;;;;1.60;0.50;;;;;;;16.64;61.07;102463.97;6344559;22;20002;-77
2021/04/12 03:13:42;;;;;;;0.80;0.32;;;;;;;16.62;60.93;102468.25;6345982;22;20002;-77
2021/04/12 03:16:39;;;;;;;0.40;0.30;;;;;;;16.63;60.61;102467.38;6347973;22;20444;-77
2021/04/12 03:19:29;;;;;;;0.52;0.30;;;;;;;16.63;61.03;102464.78;6347142;22;20067;-77
2021/04/12 03:22:21;;;;;;;0.88;0.40;;;;;;;16.64;60.87;102469.16;6345269;22;20123;-77
2021/04/12 03:24:49;;;;;;;0.35;0.32;;;;;;;16.62;60.68;102466.53;6357323;22;20011;-78
2021/04/12 03:27:27;;;;;;;1.08;0.40;;;;;;;16.63;61.15;102462.19;6363179;22;20002;-78
2021/04/12 03:30:14;;;;;;;1.55;0.43;;;;;;;16.63;60.84;102470.84;6356703;22;20036;-77
2021/04/12 03:33:07;;;;;;;2.13;0.30;;;;;;;16.61;60.65;102466.47;6345592;22;20025;-77
2021/04/12 03:35:48;;;;;;;2.25;0.65;;;;;;;16.60;60.30;102469.94;6343140;22;20010;-77
2021/04/12 03:38:38;;;;;;;0.55;0.30;;;;;;;16.61;60.53;102479.47;6339933;22;20042;-78
2021/04/12 03:41:14;;;;;;;0.80;0.32;;;;;;;16.61;61.14;102474.28;6344537;22;20009;-78
2021/04/12 03:44:09;;;;;;;0.60;0.30;;;;;;;16.62;62.07;102471.72;6345886;22;20046;-77
2021/04/12 03:46:59;;;;;;;1.17;0.30;;;;;;;16.60;60.54;102469.94;6344456;22;20019;-78
2021/04/12 03:49:27;;;;;;;0.63;0.40;;;;;;;16.60;60.37;102472.53;6346631;22;20024;-77
2021/04/12 03:52:20;;;;;;;0.85;0.30;;;;;;;16.59;61.06;102476.88;6346085;22;20006;-77
2021/04/12 03:54:57;;;;;;;0.45;0.30;;;;;;;16.61;60.79;102477.78;6350159;22;20003;-77
2021/04/12 03:57:32;;;;;;;1.20;0.30;;;;;;;16.60;60.99;102490.72;6355620;22;20449;-77
2021/04/12 04:00:28;;;;;;;0.98;0.40;;;;;;;16.57;60.43;102495.84;6352379;22;20013;-77
2021/04/12 04:03:00;;;;;;;0.45;0.30;;;;;;;16.57;60.32;102503.63;6349092;22;20010;-77
2021/04/12 04:05:37;;;;;;;0.47;0.40;;;;;;;16.58;60.59;102511.47;6351027;22;20010;-77
2021/04/12 04:08:40;;;;;;;0.50;0.30;;;;;;;16.59;61.08;102512.34;6354031;22;20025;-78
2021/04/12 04:11:25;;;;;;;2.05;0.40;;;;;;;16.59;60.32;102507.16;6347538;22;20006;-77
2021/04/12 04:14:23;;;;;;;0.82;0.30;;;;;;;16.58;60.95;102511.47;6346449;22;20006;-77
2021/04/12 04:17:17;;;;;;;3.60;0.50;;;;;;;16.57;60.11;102504.53;6344444;22;20003;-77
2021/04/12 04:20:23;;;;;;;1.20;0.30;;;;;;;16.59;60.66;102501.97;6345253;22;20010;-77
2021/04/12 04:23:02;;;;;;;0.65;0.30;;;;;;;16.56;60.43;102500.19;6305050;22;20371;-77
2021/04/12 04:26:10;;;;;;;0.70;0.30;;;;;;;16.57;60.48;102498.44;6344135;22;20011;-77
2021/04/12 04:29:02;;;;;;;1.48;0.45;;;;;;;16.57;60.40;102501.03;6267585;22;20007;-77
2021/04/12 04:31:52;;;;;;;0.82;0.35;;;;;;;16.56;59.96;102501.91;6341731;22;20007;-77
2021/04/12 04:34:32;;;;;;;0.38;0.30;;;;;;;16.56;60.04;102494.09;6339844;22;20003;-77
2021/04/12 04:37:24;;;;;;;0.55;0.30;;;;;;;16.58;60.03;102501.09;6340165;22;20002;-77
2021/04/12 04:40:46;;;;;;;1.05;0.30;;;;;;;16.59;60.39;102500.25;6341095;22;20010;-78
2021/04/12 04:43:13;;;;;;;0.30;0.22;;;;;;;16.60;60.21;102496.81;6251014;22;20012;-78
2021/04/12 04:46:07;;;;;;;0.90;0.30;;;;;;;16.60;60.95;102507.19;6250172;22;20020;-78
2021/04/12 04:48:42;;;;;;;1.08;0.50;;;;;;;16.60;60.40;102508.94;6309443;22;20032;-77
2021/04/12 04:51:35;;;;;;;0.30;0.20;;;;;;;16.60;60.25;102512.41;6349343;22;20006;-77
2021/04/12 04:54:12;;;;;;;2.38;0.30;;;;;;;16.61;60.31;102516.75;6350382;22;20013;-77
2021/04/12 04:56:53;;;;;;;0.85;0.40;;;;;;;16.63;60.17;102522.84;6347575;22;20078;-77
2021/04/12 04:59:36;;;;;;;0.98;0.30;;;;;;;16.64;60.85;102523.75;6346932;22;20007;-78
2021/04/12 05:02:02;;;;;;;0.32;0.20;;;;;;;16.64;61.47;102523.75;6344233;22;19998;-77
2021/04/12 05:04:59;;;;;;;0.60;0.30;;;;;;;16.62;59.37;102534.09;6348482;22;19998;-77
2021/04/12 05:07:27;;;;;;;1.58;0.30;;;;;;;16.63;60.04;102529.78;6346968;22;20014;-77
2021/04/12 05:09:57;;;;;;;4.72;0.80;;;;;;;16.64;60.24;102535.00;6347547;22;20022;-77
2021/04/12 05:12:37;;;;;;;6.47;2.25;;;;;;;16.65;60.57;102543.69;6346165;22;20006;-77
2021/04/12 05:15:34;;;;;;;6.68;2.05;;;;;;;16.65;60.07;102539.34;6346613;22;20007;-77
2021/04/12 05:18:17;;;;;;;8.35;1.98;;;;;;;16.65;60.24;102548.88;6349542;22;19999;-77
2021/04/12 05:21:01;;;;;;;;;;;;;;;16.87;59.95;102547.63;6349229;22;20013;-77
2021/04/12 05:23:53;;;;;;;9.63;1.98;;;;;;;17.03;58.30;102552.31;6346473;22;20215;-77
2021/04/12 05:26:37;;;;;;;6.10;1.70;;;;;;;17.10;58.42;102550.72;6299508;22;20006;-77
2021/04/12 05:29:15;;;;;;;5.38;2.00;;;;;;;17.14;57.95;102546.47;6349180;22;20036;-77
2021/04/12 05:32:03;;;;;;;8.48;1.70;;;;;;;17.17;59.81;102554.31;6355061;22;20002;-77
2021/04/12 05:34:57;;;;;;;6.18;1.48;;;;;;;17.19;59.42;102543.09;6354965;22;20022;-77
2021/04/12 05:38:03;;;;;;;8.10;1.88;;;;;;;17.24;60.89;102557.03;6322219;22;20019;-77
2021/04/12 05:40:56;;;;;;;5.85;1.60;;;;;;;17.28;60.31;102578.81;6346732;22;20011;-77
2021/04/12 05:44:02;;;;;;;4.10;1.20;;;;;;;17.25;60.65;102590.03;6355820;22;20014;-76
2021/04/12 05:46:39;;;;;;;6.28;1.70;;;;;;;17.26;60.01;102596.13;6362976;22;20007;-77
2021/04/12 05:49:35;;;;;;;4.50;1.52;;;;;;;17.21;61.07;102602.97;6366285;22;20006;-76
2021/04/12 05:52:38;;;;;;;3.45;1.42;;;;;;;17.19;59.73;102617.66;6349774;22;19999;-77
2021/04/12 05:55:06;;;;;;;5.68;1.40;;;;;;;17.17;59.81;102617.63;6348041;22;20035;-77
2021/04/12 05:58:18;;;;;;;5.47;1.30;;;;;;;17.15;60.90;102631.44;6346388;22;20060;-77
2021/04/12 06:00:53;;;;;;;2.92;1.10;;;;;;;17.14;60.71;102632.31;6347778;22;20338;-76
2021/04/12 06:03:56;;;;;;;3.25;1.30;;;;;;;17.16;61.47;102625.38;6346154;22;20022;-77
2021/04/12 06:06:50;;;;;;;3.53;1.30;;;;;;;17.18;60.76;102631.50;6348756;22;20010;-77
2021/04/12 06:10:00;;;;;;;2.85;1.20;;;;;;;17.17;59.73;102634.97;6356843;22;20058;-77
2021/04/12 06:12:42;;;;;;;3.65;1.10;;;;;;;17.17;60.03;102640.16;6352548;22;20007;-77
2021/04/12 06:15:45;;;;;;;3.45;1.15;;;;;;;17.17;61.12;102630.63;6360567;22;20006;-77
2021/04/12 06:18:45;;;;;;;2.10;1.20;;;;;;;17.17;61.06;102628.03;6356710;22;20030;-77
2021/04/12 06:21:48;;;;;;;5.75;1.05;;;;;;;17.20;58.98;102633.31;6302557;22;20315;-78
2021/04/12 06:24:29;;;;;;;2.50;0.90;;;;;;;17.22;60.99;102628.13;6349211;22;20002;-77
2021/04/12 06:28:08;;;;;;;4.72;1.17;;;;;;;17.25;61.19;102630.78;6352165;22;20023;-77
2021/04/12 06:31:09;;;;;;;2.30;1.10;;;;;;;17.28;60.68;102630.84;6140049;23;20010;-77
2021/04/12 06:34:09;;;;;;;3.60;1.10;;;;;;;17.32;61.44;102632.66;6217950;23;20087;-77
2021/04/12 06:37:00;;;;;;;2.35;1.00;;;;;;;17.36;60.21;102633.63;6348344;22;20453;-77
2021/04/12 06:39:32;;;;;;;1.95;0.95;;;;;;;17.42;58.23;102629.41;6345274;22;20003;-77
2021/04/12 06:42:16;;;;;;;1.75;1.00;;;;;;;17.50;58.01;102639.09;6344972;22;20006;-77
2021/04/12 06:45:13;;;;;;;3.50;1.02;;;;;;;17.60;57.48;102636.69;6345264;22;20003;-77
2021/04/12 06:47:56;;;;;;;2.33;1.13;;;;;;;17.74;57.13;102642.16;6343064;22;20018;-78
2021/04/12 06:50:41;;;;;;;2.75;0.93;;;;;;;17.87;55.88;102641.53;6346542;22;20006;-77
2021/04/12 06:53:18;;;;;;;3.45;0.90;;;;;;;18.00;54.99;102645.25;6347332;22;20446;-77
2021/04/12 06:56:27;;;;;;;4.10;0.90;;;;;;;17.98;55.01;102631.31;6350379;22;20013;-78
2021/04/12 07:02:43;;;;;;;4.00;0.98;;;;;;;17.85;56.69;102650.19;6344266;22;20025;-78
2021/04/12 07:05:14;;;;;;;2.05;0.70;;;;;;;17.89;55.90;102652.88;6346989;22;19999;-78
2021/04/12 07:08:08;;;;;;;2.08;0.88;;;;;;;17.88;57.08;102655.47;6343902;22;20021;-79
2021/04/12 07:11:04;;;;;;;3.10;0.88;;;;;;;17.89;57.09;102655.47;6346263;22;20013;-78
2021/04/12 07:13:40;;;;;;;3.42;0.73;;;;;;;17.91;56.78;102652.03;6343947;22;20080;-77
2021/04/12 07:16:47;;;;;;;1.45;0.60;;;;;;;17.86;58.15;102660.66;6346152;22;19998;-78
2021/04/12 07:19:54;;;;;;;1.58;0.80;;;;;;;17.95;55.80;102656.47;6345020;22;19998;-78
2021/04/12 07:22:58;;;;;;;1.95;0.80;;;;;;;18.24;55.26;102657.81;6340847;22;20414;-79
2021/04/12 07:25:30;;;;;;;1.92;0.70;;;;;;;18.25;54.89;102662.19;6336990;22;20006;-78
2021/04/12 07:28:19;;;;;;;5.07;0.60;;;;;;;18.16;55.33;102664.66;6343220;22;20022;-79
2021/04/12 07:31:22;;;;;;;1.15;0.52;;;;;;;18.33;54.72;102667.50;6343104;22;20010;-79
2021/04/12 07:34:24;;;;;;;1.50;0.82;;;;;;;18.09;55.39;102675.78;6342138;22;20007;-79
2021/04/12 07:37:01;;;;;;;2.00;0.80;;;;;;;18.49;53.75;102674.75;6342051;22;20495;-80
2021/04/12 07:39:50;;;;;;;1.83;0.70;;;;;;;19.61;50.70;102674.53;6338567;22;20064;-82
2021/04/12 07:42:53;;;;;;;1.15;0.50;;;;;;;19.08;51.41;102676.50;6307789;22;20034;-81
2021/04/12 07:45:46;;;;;;;2.47;0.70;;;;;;;19.77;49.49;102675.59;6336766;22;20003;-80
2021/04/12 07:49:01;;;;;;;1.52;0.70;;;;;;;18.79;52.14;102677.81;6334335;22;20015;-80
2021/04/12 07:51:32;;;;;;;1.55;0.70;;;;;;;19.07;52.07;102686.91;6358389;22;20071;-80
2021/04/12 07:54:36;;;;;;;0.90;0.50;;;;;;;18.58;52.92;102679.22;6341775;22;20011;-79
2021/04/12 07:57:26;;;;;;;1.38;0.60;;;;;;;18.47;53.38;102680.78;6372464;22;19998;-80
2021/04/12 08:00:19;;;;;;;0.95;0.55;;;;;;;18.28;54.04;102697.84;6375028;22;20325;-79
2021/04/12 08:02:56;;;;;;;0.93;0.55;;;;;;;18.11;54.55;102692.34;6374386;22;20189;-79
2021/04/12 08:05:55;;;;;;;0.57;0.50;;;;;;;18.06;54.93;102697.47;6384274;22;20079;-79
2021/04/12 08:08:36;;;;;;;1.15;0.60;;;;;;;18.05;55.23;102697.44;6391086;22;19994;-79
2021/04/12 08:11:34;;;;;;;1.35;0.60;;;;;;;18.09;55.10;102704.44;6387596;22;20006;-80
2021/04/12 08:14:38;;;;;;;1.15;0.60;;;;;;;18.14;54.89;102701.94;6392255;22;20030;-79
2021/04/12 08:17:18;;;;;;;1.33;0.70;;;;;;;18.17;54.45;102709.81;6297400;22;20003;-79
2021/04/12 08:20:22;;;;;;;1.10;0.70;;;;;;;18.23;54.50;102712.53;6328440;22;20066;-79
2021/04/12 08:22:56;;;;;;;0.93;0.50;;;;;;;18.34;54.21;102711.00;6298567;22;20003;-79
2021/04/12 08:26:03;;;;;;;0.80;0.50;;;;;;;18.32;54.30;102712.69;6322651;22;20029;-79
2021/04/12 08:28:56;;;;;;;0.95;0.50;;;;;;;18.28;54.12;102714.34;6321451;22;20007;-79
2021/04/12 08:31:47;;;;;;;0.95;0.50;;;;;;;18.36;53.90;102711.91;6314915;22;20405;-79
2021/04/12 08:34:52;;;;;;;2.03;0.60;;;;;;;18.20;54.35;102715.94;6323061;22;20060;-79
2021/04/12 08:37:56;;;;;;;0.88;0.60;;;;;;;18.02;55.08;102719.09;6354107;22;20069;-79
2021/04/12 08:40:40;;;;;;;1.55;0.55;;;;;;;17.94;55.25;102714.59;6354418;22;20433;-78
2021/04/12 08:43:39;;;;;;;1.13;0.50;;;;;;;17.91;55.27;102722.38;6356676;22;20022;-78
2021/04/12 08:46:45;;;;;;;0.47;0.38;;;;;;;18.07;54.68;102725.28;6358515;22;20003;-79
2021/04/12 08:50:01;;;;;;;0.93;0.60;;;;;;;18.16;54.30;102716.75;6312392;22;20019;-79
2021/04/12 08:52:58;;;;;;;2.40;0.60;;;;;;;18.20;54.20;102730.72;6328567;22;20033;-79
2021/04/12 08:55:39;;;;;;;1.48;0.63;;;;;;;18.47;53.39;102715.56;6296948;22;20010;-80
2021/04/12 08:58:42;;;;;;;1.58;0.50;;;;;;;18.60;52.91;102720.97;6325127;22;19995;-79
2021/04/12 09:01:46;;;;;;;0.65;0.40;;;;;;;18.74;52.55;102718.56;6329015;22;20003;-79
2021/04/12 09:04:50;;;;;;;0.68;0.43;;;;;;;18.66;53.10;102715.84;6330167;22;20003;-81
2021/04/12 09:07:29;;;;;;;;;;;;;;;18.46;53.13;102723.34;6328473;22;20012;-79
2021/04/12 09:10:35;;;;;;;0.82;0.47;;;;;;;18.25;54.39;102729.09;6331259;22;19914;-79
2021/04/12 09:13:48;;;;;;;0.82;0.40;;;;;;;18.04;55.34;102738.25;6382507;22;20014;-78
2021/04/12 09:16:34;;;;;;;0.52;0.40;;;;;;;18.00;54.96;102743.38;6389657;22;20006;-78
2021/04/12 09:19:18;;;;;;;0.68;0.50;;;;;;;18.24;53.75;102741.22;6389444;22;20062;-78
2021/04/12 09:22:18;;;;;;;0.90;0.40;;;;;;;18.19;54.00;102742.88;6389428;22;20003;-79
2021/04/12 09:25:09;;;;;;;1.23;0.68;;;;;;;18.19;54.12;102755.03;6387990;22;20001;-79
2021/04/12 09:28:12;;;;;;;1.20;0.55;;;;;;;18.29;53.55;102757.81;6353021;22;20345;-79
2021/04/12 09:31:19;;;;;;;1.15;0.50;;;;;;;18.35;53.33;102749.22;6290516;22;20011;-79
2021/04/12 09:34:23;;;;;;;1.08;0.52;;;;;;;18.40;53.28;102750.19;6289046;22;20034;-80
2021/04/12 09:37:26;;;;;;;0.95;0.43;;;;;;;18.35;53.58;102759.66;6284721;22;20018;-78
2021/04/12 09:40:29;;;;;;;0.70;0.40;;;;;;;18.37;53.56;102751.88;6290242;22;20015;-78
2021/04/12 09:43:24;;;;;;;0.73;0.45;;;;;;;18.30;53.65;102763.91;6341203;22;20018;-79
2021/04/12 09:46:26;;;;;;;1.13;0.50;;;;;;;18.30;53.53;102767.38;6385532;22;20014;-79
2021/04/12 09:49:26;;;;;;;0.55;0.45;;;;;;;18.34;53.42;102765.72;6381414;22;19998;-79
2021/04/12 09:52:29;;;;;;;0.63;0.50;;;;;;;18.33;53.16;102760.47;6385118;22;20471;-79
2021/04/12 09:55:06;;;;;;;1.20;0.50;;;;;;;18.25;53.54;102760.34;6388516;22;19998;-79
2021/04/12 09:58:25;;;;;;;0.35;0.35;;;;;;;18.21;53.84;102769.84;6361005;22;20020;-78
2021/04/12 10:01:06;;;;;;;1.55;0.50;;;;;;;18.17;53.70;102768.00;6295127;22;20008;-78
2021/04/12 10:04:10;;;;;;;0.80;0.40;;;;;;;18.25;53.21;102774.25;6381030;22;20003;-77
2021/04/12 10:06:47;;;;;;;0.55;0.40;;;;;;;18.23;53.52;102780.28;6391615;22;19999;-78
2021/04/12 10:09:21;;;;;;;0.60;0.40;;;;;;;18.24;53.59;102774.22;6389052;22;20010;-78
2021/04/12 10:12:02;;;;;;;0.95;0.50;;;;;;;18.23;53.66;102786.38;6390583;22;20006;-79
2021/04/12 10:14:51;;;;;;;0.80;0.50;;;;;;;18.20;53.47;102781.09;6389086;22;20002;-78
2021/04/12 10:17:45;;;;;;;0.85;0.47;;;;;;;18.20;53.76;102767.19;6388360;22;20048;-78
2021/04/12 10:20:54;;;;;;;1.05;0.50;;;;;;;18.21;53.95;102788.06;6391891;22;20002;-78
2021/04/12 10:23:30;;;;;;;1.48;0.45;;;;;;;18.18;53.64;102775.00;6391648;22;20006;-78
2021/04/12 10:28:50;;;;;;;0.75;0.55;;;;;;;18.24;53.13;102787.25;6389822;22;20024;-78
2021/04/12 10:31:53;;;;;;;1.38;0.60;;;;;;;18.16;53.43;102792.34;6370111;22;20014;-79
2021/04/12 10:34:45;;;;;;;1.02;0.50;;;;;;;18.13;53.83;102787.03;6370005;22;20468;-78
2021/04/12 10:37:30;;;;;;;1.63;0.60;;;;;;;18.14;53.62;102785.31;6358935;22;20006;-78
2021/04/12 10:40:44;;;;;;;1.15;0.60;;;;;;;18.14;53.75;102791.41;6385843;22;20426;-78
2021/04/12 10:43:19;;;;;;;0.63;0.43;;;;;;;18.16;53.65;102791.44;6383491;22;20045;-78
2021/04/12 10:46:09;;;;;;;2.25;0.52;;;;;;;18.17;53.65;102788.00;6359933;22;20442;-78
2021/04/12 10:49:12;;;;;;;3.42;0.57;;;;;;;18.19;53.90;102792.38;6361273;22;19998;-78
2021/04/12 10:52:00;;;;;;;0.77;0.47;;;;;;;18.27;53.54;102806.44;6382339;22;20021;-78
2021/04/12 10:54:37;;;;;;;1.02;0.50;;;;;;;18.33;53.83;102803.03;6360075;22;19999;-78
2021/04/12 10:57:29;;;;;;;0.82;0.60;;;;;;;18.36;53.17;102803.13;6387201;22;20017;-78
2021/04/12 11:00:19;;;;;;;0.88;0.40;;;;;;;18.38;53.15;102806.63;6385377;22;20007;-79
2021/04/12 11:03:30;;;;;;;0.43;0.30;;;;;;;18.37;54.34;102806.59;6360472;22;20045;-78
2021/04/12 11:06:19;;;;;;;0.98;0.43;;;;;;;18.34;53.43;102798.75;6331443;22;20002;-78
2021/04/12 11:09:26;;;;;;;1.25;0.55;;;;;;;18.36;53.35;102810.06;6364994;22;20033;-78
2021/04/12 11:12:13;;;;;;;0.98;0.60;;;;;;;18.43;53.43;102804.13;6356201;22;20012;-78
2021/04/12 11:14:54;;;;;;;1.23;0.55;;;;;;;18.38;53.64;102806.63;6361373;22;20006;-78
2021/04/12 11:17:48;;;;;;;2.10;0.50;;;;;;;18.36;53.08;102813.56;6357088;22;19994;-78
2021/04/12 11:20:36;;;;;;;0.40;0.40;;;;;;;18.37;53.43;102810.06;6330919;22;20006;-78
2021/04/12 11:23:10;;;;;;;0.47;0.40;;;;;;;18.39;53.60;102815.34;6358762;22;19999;-78
2021/04/12 11:26:04;;;;;;;0.60;0.40;;;;;;;18.40;53.10;102820.59;6383200;22;20002;-78
2021/04/12 11:29:02;;;;;;;0.70;0.50;;;;;;;18.40;53.42;102827.50;6361680;22;20006;-78
2021/04/12 11:31:51;;;;;;;1.58;0.43;;;;;;;18.38;53.18;102822.28;6389687;22;20016;-78
2021/04/12 11:34:47;;;;;;;0.60;0.38;;;;;;;18.36;53.19;102826.59;6391010;22;20068;-78
2021/04/12 11:37:43;;;;;;;0.98;0.40;;;;;;;18.35;53.03;102831.75;6385540;22;20028;-78
2021/04/12 11:40:30;;;;;;;0.55;0.38;;;;;;;18.39;53.53;102828.38;6337964;22;20082;-78
2021/04/12 11:43:00;;;;;;;1.25;0.60;;;;;;;18.41;53.29;102835.34;6364217;22;20062;-78
2021/04/12 11:45:58;;;;;;;0.90;0.60;;;;;;;18.42;53.40;102826.69;6336835;22;20026;-78
2021/04/12 11:48:36;;;;;;;0.65;0.40;;;;;;;18.45;52.99;102833.69;6378744;22;20018;-78
2021/04/12 11:51:31;;;;;;;0.45;0.40;;;;;;;18.44;52.97;102839.75;6357132;22;20018;-79
2021/04/12 11:54:13;;;;;;;0.80;0.50;;;;;;;18.46;53.03;102838.03;6385929;22;20002;-79
2021/04/12 11:57:00;;;;;;;0.93;0.40;;;;;;;18.48;52.79;102839.81;6387741;22;20086;-78
2021/04/12 11:59:58;;;;;;;1.58;0.60;;;;;;;18.49;52.82;102844.22;6379551;22;19998;-78
2021/04/12 12:02:51;;;;;;;1.83;0.60;;;;;;;18.49;53.05;102844.22;6390859;22;20002;-78
2021/04/12 12:05:33;;;;;;;0.93;0.47;;;;;;;18.49;52.56;102849.41;6390531;22;20055;-78
2021/04/12 12:08:11;;;;;;;2.65;0.50;;;;;;;18.42;53.16;102846.66;6364743;22;19994;-78
2021/04/12 12:11:43;;;;;;;0.60;0.40;;;;;;;18.37;53.15;102857.00;6368823;22;20018;-78
2021/04/12 12:14:44;;;;;;;0.98;0.50;;;;;;;18.34;53.38;102856.94;6264132;23;20004;-78
2021/04/12 12:17:37;;;;;;;1.42;0.60;;;;;;;18.35;53.12;102855.22;6268301;23;20038;-79
2021/04/12 12:20:12;;;;;;;0.90;0.50;;;;;;;18.34;53.34;102856.09;6244785;23;19995;-78
2021/04/12 12:23:34;;;;;;;1.88;0.60;;;;;;;18.37;53.02;102854.38;6352117;22;20002;-78
2021/04/12 12:26:04;;;;;;;1.35;0.50;;;;;;;18.38;53.03;102858.78;6396261;22;19998;-78
2021/04/12 12:28:47;;;;;;;0.43;0.40;;;;;;;18.40;52.94;102866.59;6366699;22;20097;-78
2021/04/12 12:31:34;;;;;;;1.08;0.50;;;;;;;18.36;53.17;102862.19;6387137;22;20014;-79
2021/04/12 12:34:31;;;;;;;0.90;0.50;;;;;;;18.36;53.11;102863.06;6369540;22;19998;-78
2021/04/12 12:37:46;;;;;;;0.82;0.52;;;;;;;18.35;53.13;102868.25;6366672;22;20014;-78
2021/04/12 12:41:03;;;;;;;0.75;0.50;;;;;;;18.35;53.17;102871.72;6369193;22;20017;-78
2021/04/12 12:43:51;;;;;;;0.80;0.40;;;;;;;18.37;52.88;102877.84;6379873;22;20018;-77
2021/04/12 12:46:23;;;;;;;1.02;0.50;;;;;;;18.39;52.84;102870.06;6336670;22;20038;-78
2021/04/12 12:48:52;;;;;;;0.70;0.50;;;;;;;18.38;52.85;102879.63;6389314;22;20001;-79
2021/04/12 12:51:49;;;;;;;0.60;0.50;;;;;;;18.39;53.04;102873.56;6362888;22;20091;-78
2021/04/12 12:54:54;;;;;;;0.80;0.45;;;;;;;18.45;52.59;102885.84;6361027;22;20036;-80
2021/04/12 12:57:47;;;;;;;0.77;0.50;;;;;;;18.48;52.42;102883.28;6322213;22;20010;-78
2021/04/12 13:00:45;;;;;;;0.60;0.40;;;;;;;18.53;52.75;102883.34;6365217;22;20082;-78
2021/04/12 13:03:42;;;;;;;2.25;0.47;;;;;;;18.56;52.49;102881.69;6283924;22;20010;-79
2021/04/12 13:06:19;;;;;;;2.75;0.50;;;;;;;18.51;52.40;102885.97;6388778;22;20006;-78
2021/04/12 13:09:03;;;;;;;;;;;;;;;18.59;52.37;102883.47;6392886;22;19998;-78
2021/04/12 13:11:36;;;;;;;2.15;0.50;;;;;;;18.72;52.21;102893.28;6396527;22;19924;-78
2021/04/12 13:14:16;;;;;;;2.28;0.52;;;;;;;18.76;52.12;102887.28;6398130;22;19998;-79
2021/04/12 13:16:45;;;;;;;1.60;0.60;;;;;;;18.79;51.74;102894.31;6396738;22;19997;-78
2021/04/12 13:19:13;;;;;;;0.98;0.38;;;;;;;18.78;52.05;102906.47;6389965;22;20007;-79
2021/04/12 13:21:45;;;;;;;0.85;0.40;;;;;;;18.74;52.02;102901.16;6362651;22;20002;-78
2021/04/12 13:24:29;;;;;;;1.60;0.50;;;;;;;18.69;52.06;102907.16;6390049;22;20299;-78